Ottawa Hills, Ohio
Current Conditions -  °F | °C
As of 9:15 AM on Saturday 25 Oct 2014 (Local Time) from KDUH Reporting Station
Clear Clear  
Wind Chill: 55°   Ceiling: Unl
Heat Index: 55°   Visibility: 7mi
Dew Point: 50°   Wind: 8mph
Humidity: 82%   Direction: 240°WSW
Pressure: 29.87"   Gusts: NA
Location:  41.6504°N, 83.6702°W
Report Text: KDUH 251315Z AUTO 24007KT 7SM CLR 13/10 A2987 RMK AO2
Loading
Personal Weather Stations






























Interactive Weather Map
Tropical Storm Tracking
New forecast layout! Learn more

10-Day Weather Forecast

Advertisements
Track Severe Weather on mobile